Les vidéos Equidia

Discipline Date Nom de la Course Hippodrome Alloc Jockey/Driver Red. Km Dist Corde Ferrure Autostart Class Video
Attelé 2019-04-07 D'AIX-LES-BAINS AVENCHES ( Suisse ) 7.109 euros J. FAIVRE PIERRET 1'17"00 2400 A 06
Attelé 2019-03-31 OUESSANT LYON-PARILLY 32.000 euros J. CUOQ 1'16"40 2850 G 13
Attelé 2019-03-15 BY MY CAR SAINT GALMIER 23.000 euros L. VERRIERE 1'12"50 2000 D A 06
Attelé 2018-11-17 AMATEURS AVENCHES ( Suisse ) 8.570 euros FAIVRE PIERRET JOHAN 1'19"80 3000 G 01
Attelé 2018-11-11 LA SOLOGNE LYON-PARILLY 25.000 euros J. CUOQ 2850 G Non partant
Attelé 2018-11-04 ALLEMAGNE AVENCHES ( Suisse ) 8.570 euros FAIVRE PIERRET JOHAN 1'17"90 2350 A 05
Attelé 2018-10-21 L'ORNE LYON-PARILLY 26.000 euros J. CUOQ 1'16"20 2850 G 05
Attelé 2018-10-16 AMPHITRITE PARIS-VINCENNES 14.000 euros J. FAIVRE PIERRET 1'15"60 2850 G 08
Attelé 2018-09-22 CRIT.VITESSE VICHY 8.000 euros J. FAIVRE PIERRET 1'12"00 1609 D A 03
Attelé 2018-09-01 DE BAGNOLET VICHY 23.000 euros P. CALLIER 1'13"90 2800 D A 04
Attelé 2018-08-21 AMITIE FR-SUISS DIVONNE 25.000 euros J.B. MATTHEY 1'13"80 2050 G A 10
Attelé 2018-07-29 VILLEURBANNE AIX LES BAINS 18.000 euros CH. DESRUES 2700 D 14
Attelé 2018-07-05 GARE ST-LAZARE ENGHIEN 13.000 euros J. FAIVRE PIERRET 1'14"40 2150 G A 05
Attelé 2018-06-25 POLE HIPPIQUE NANCY 25.000 euros C. DERHAN 1'17"30 2600 D 08
Attelé 2018-06-14 LOT-ET-GARONNE LYON-PARILLY 26.000 euros J. BOILLEREAU 1'17"10 2850 G 07
Attelé 2018-05-08 ANTARES PARIS-VINCENNES 14.000 euros J. FAIVRE PIERRET 1'14"90 2850 G 05
Attelé 2018-04-11 L'UNAT LYON LA SOIE 8.000 euros B. GATHERON 1'18"60 3250 D 11
Attelé 2018-03-28 SALON PROVENCE MARSEILLE-BORELY 8.000 euros J. FAIVRE PIERRET 1'16"00 3000 G 03
Attelé 2018-03-17 PARCOUR.GOURMAN SAINT GALMIER 20.000 euros CH. DESRUES 1'14"60 2000 D A 09
Attelé 2018-01-05 QUIDAM CASTELET CAGNES-SUR-MER 8.000 euros J. FAIVRE PIERRET 2925 G Non partant
Attelé 2017-12-20 SAINT-GERMAIN PARIS-VINCENNES 14.000 J. FAIVRE PIERRET 1'13"70 2100 G A 01
Attelé 2017-11-25 M. THEVENON PARIS-VINCENNES 16.000 J. FAIVRE PIERRET 2700 G
Attelé 2017-10-31 ASSO 42 SAINT GALMIER 24.000 CH. DESRUES 2650 D
Attelé 2017-10-22 DE LA MEINAU STRASBOURG 6.000 J. FAIVRE PIERRET 2800 D
Attelé 2017-10-18 CABINET AXENS SAINT GALMIER 8.000 J. FAIVRE PIERRET 2625 D 06
Attelé 2017-09-23 CRIT.DE VITESSE VICHY 8.000 J. FAIVRE PIERRET 1'15"70 1609 D A 10
Attelé 2017-09-17 PARIONSURHIPPO LYON-PARILLY 17.000 CH. DESRUES 1'17"70 2850 G 01
Attelé 2017-09-04 RHONE-ALPES S. FEURS 6.000 J. FAIVRE PIERRET 1'14"50 2050 G A 05
Attelé 2017-08-24 PRIME ENERGY DIVONNE 6.000 J. FAIVRE PIERRET 1'19"90 2675 G 01
Attelé 2017-08-20 CEFFONDS MONTIER EN DER 6.000 J. FAIVRE PIERRET 1'22"00 3000 D 04
Attelé 2017-08-05 GRENOBLE AIX LES BAINS 4.000 J. FAIVRE PIERRET 2000 D 01
Attelé 2017-06-27 POLE HIPPIQUE NANCY 25.000 A.A. DAVID 2600 D NP
Attelé 2017-06-13 ROSALIA PARIS-VINCENNES 14.000 J. FAIVRE PIERRET 1'16"00 2100 G A 02
Attelé 2017-06-01 MIRABELLES LOR. NANCY 6.000 J. FAIVRE PIERRET 1'18"40 2600 D 02
Attelé 2016-09-25 PARIS-TURF LYON-PARILLY 20.000 J. CUOQ 1'18"30 2850 G 12
Attelé 2016-09-17 FED. CENTRE EST VICHY 8.000 J. FAIVRE PIERRET 2850 D NP
Attelé 2016-09-05 RH-ALP.SECURITE FEURS 6.000 J. FAIVRE PIERRET 1'19"90 3500 G 05
Attelé 2016-08-26 JEAN LAIN DIVONNE 22.000 J. CUOQ 1'16"50 2650 G A 05
Attelé 2016-08-21 PAYS GESSIEN DIVONNE 26.000 O. BIZOUX 1'16"40 2675 G 05
Attelé 2016-07-31 ROCHE DU ROI AIX LES BAINS 6.000 J. FAIVRE PIERRET 2700 D 10
Attelé 2016-07-16 ROYAL HORSE FEURS 6.000 J. FAIVRE PIERRET 1'14"70 2050 G A 01
Attelé 2016-07-08 SEVAL TP CHAZ. FEURS 6.000 J. FAIVRE PIERRET 1'17"20 2850 G 06
Attelé 2016-06-22 FOREZ VICHY 21.000 J. CUOQ 2150 D A AI
Attelé 2016-05-09 BOLLENE SAINT GALMIER 6.000 J. FAIVRE PIERRET 2650 D AI
Attelé 2016-05-01 THIVENT CONNECT PARAY-LE-MONIAL 25.000 B. RUET 2625 D
Attelé 2016-04-11 LA THIERACHE LYON-PARILLY 6.000 J. FAIVRE PIERRET 1'18"80 2850 G 07
Attelé 2015-11-15 POITOU LYON-PARILLY 20.000 J. CUOQ 2000 G A
Attelé 2015-10-18 GRESIVAUDAN LYON-PARILLY 18.000 J. BOILLEREAU 1'16"30 2850 G 02
Attelé 2015-10-05 BM ENVIRON. FEURS 6.000 J. FAIVRE PIERRET 1'14"80 2050 G A 02
Attelé 2015-09-28 SAINT-ETIENNE SAINT GALMIER 22.000 L. GAZENGEL 1'16"60 2600 D A 08
Attelé 2015-09-18 TRICASTIN LYON LA SOIE 6.000 J. FAIVRE PIERRET 1'17"20 2700 D 02
Attelé 2015-08-29 DE GENEVE DIVONNE 20.000 B. RUET 2675 G AI
Attelé 2015-08-21 BELLINO II DIVONNE 6.000 J. FAIVRE PIERRET 1'16"20 2050 G A 03
Attelé 2015-07-26 L'ECLIPSE PMU MONTIER EN DER 6.000 J. FAIVRE PIERRET 1'24"80 3000 D 03
Attelé 2015-06-29 PHILIPPE MULLER VICHY 8.000 J. FAIVRE PIERRET 1'19"10 2850 D 06
Attelé 2015-06-20 CASINO FEURS 3.000 J. FAIVRE PIERRET 1'14"30 2050 G A 01
Attelé 2015-06-07 FRANCE BLEU NANCY 5.000 J. FAIVRE PIERRET 1'17"40 2600 D 02
Attelé 2015-04-28 A.S.S.E. SAINT GALMIER 6.000 J. FAIVRE PIERRET 1'18"20 2600 D A 08
Attelé 2015-03-30 JAMIN LE CROISE-LAROCHE 16.000 G. JUNOD 1'15"20 2700 G A 07
Attelé 2015-03-23 DE NANTES LE CROISE-LAROCHE 15.000 G. JUNOD 1'14"70 2700 G A 03
Attelé 2015-03-17 PRINTEMPS AMIENS 21.000 G. JUNOD 2900 D AI
Attelé 2015-03-02 SA BOURBONNAISE LE CROISE-LAROCHE 16.000 G. JUNOD 1'16"40 2700 G A 03
Attelé 2015-02-25 COTES D'ARMOR ENGHIEN 22.000 G. JUNOD 2875 G
Attelé 2014-08-31 3 JRS CYCLISTES CHERBOURG 13.000 CH. HESLOUIN 1'18"30 2625 10
Attelé 2014-08-06 COURSESCHEVAUX MAUQUENCHY 23.000 G. JUNOD 1'25"10 2850 09
Attelé 2014-07-13 ULTRA DUCAL AMIENS 21.000 B. MARIE 2400 A
Attelé 2014-07-09 QUIPROQUO II ENGHIEN 22.000 G. JUNOD 2900
Attelé 2014-06-14 LOUIS HENRY SAINT BRIEUC 21.000 G. JUNOD 1'18"70 2575 03
Attelé 2014-06-04 J. LA VAISSIERE LAVAL 23.000 A. LAMY 1'18"10 2875 13
Attelé 2014-02-20 GEBRAZAC SAINT GALMIER 20.000 G. JUNOD 2675
Attelé 2014-02-13 ROQUEPINE ANGERS EVENTARD 22.000 B. MARIE 3125 AI
Attelé 2014-02-02 KAPRIUS MAUQUENCHY 20.000 B. MARIE 1'17"50 2850 03
Attelé 2014-01-23 DE MONS PARIS-VINCENNES 22.000 A. LAMY 2875 AI
Attelé 2014-01-02 MOULINS PARIS-VINCENNES 22.000 A. LAMY 1'16"80 2700 03